Burnaby, Canada
Current Conditions -  °F | °C
As of 9:00 AM on Sunday 23 Nov 2014 (Local Time) from CYVR Reporting Station
Broken Clouds Broken Clouds  
Wind Chill: 41°   Ceiling: 4500
Heat Index: 46°   Visibility: 12mi
Dew Point: 45°   Wind: 12mph
Humidity: 93%   Direction: 200°SSW
Pressure: 29.97"   Gusts: NA
Location:  49.24°N, 122.97°W
Report Text: CYVR 231700Z 20010KT 12SM FEW013 SCT037 BKN045 BKN092 08/07 A2997 RMK SF1SC3SC2AC1 SLP147
Loading
Personal Weather Stations






























Interactive Weather Map New forecast layout! Learn more

10-Day Weather Forecast

Advertisements
Track Severe Weather on mobile